Bookmark and Share
Track history (hours):
 

Orange Wave

Last reported at 2014-Apr-16 05:15 UTC. Time now 2014-Apr-19 14:35 UTC.
Position N 50°12' W 001°41'.

Type: Cargo ship. MMSI: 636009894.

NotesDate/timePositionNaut miles runAvg speedWind from/ knotsBaromVisibWave heightAir tempDewpointWater temp
2014-Apr-16 05:15N 50°12' W 001°41'1216.4
2014-Apr-16 04:33N 50°16' W 001°24'1817.9
2014-Apr-16 03:33N 50°21' W 000°57'1918.1
2014-Apr-16 02:31N 50°26' W 000°29'2016.9
2014-Apr-16 01:21N 50°31' E 000°01'1316.2
2014-Apr-16 00:33N 50°35' E 000°21'1515.0
2014-Apr-15 23:33N 50°42' E 000°41'1414.5
2014-Apr-15 22:33N 50°50' E 000°60'1615.5
2014-Apr-15 21:30N 51°01' E 001°19'1718.3
2014-Apr-15 20:33N 51°12' E 001°41'1817.8
2014-Apr-15 19:33N 51°26' E 001°58'1716.6
2014-Apr-15 18:33N 51°40' E 002°14'4414.4
2014-Apr-15 15:28N 52°13' E 003°02'1413.2
2014-Apr-15 14:26N 52°22' E 003°18'25 8.6
2014-Apr-15 11:33N 52°31' E 003°56'1414.2
2014-Apr-15 10:34N 52°30' E 004°19'1110.8
2014-Apr-15 09:34N 52°28' E 004°36'1 1.1
2014-Apr-15 08:34N 52°28' E 004°38'3 3.5
2014-Apr-15 07:34N 52°26' E 004°43'4 3.5
2014-Apr-15 06:34N 52°25' E 004°49'0 0.1
2014-Apr-15 05:34N 52°25' E 004°49'0 0.0
2014-Apr-15 03:34N 52°25' E 004°49'0 0.0
2014-Apr-15 02:34N 52°25' E 004°49'0 0.0
2014-Apr-15 01:34N 52°25' E 004°49'0 0.0
2014-Apr-15 00:34N 52°25' E 004°49'0 0.0
2014-Apr-14 23:34N 52°25' E 004°49'0 0.0
2014-Apr-14 22:34N 52°25' E 004°49'0 0.0
2014-Apr-14 21:34N 52°25' E 004°49'0 0.0
2014-Apr-14 20:34N 52°25' E 004°49'0 0.0
2014-Apr-14 19:34N 52°25' E 004°49'0 0.0
2014-Apr-14 18:34N 52°25' E 004°49'0 0.0
2014-Apr-14 17:34N 52°25' E 004°49'0 0.0
2014-Apr-14 16:34N 52°25' E 004°49'0 0.0
2014-Apr-14 15:34N 52°25' E 004°49'0 0.0
2014-Apr-14 14:34N 52°25' E 004°49'0 0.0
2014-Apr-14 13:34N 52°25' E 004°49'0 0.0
2014-Apr-14 11:34N 52°25' E 004°49'0 0.0
2014-Apr-14 10:34N 52°25' E 004°49'0 0.0
2014-Apr-14 09:34N 52°25' E 004°49'0 0.0
2014-Apr-14 08:34N 52°25' E 004°49'0 0.0
2014-Apr-14 07:34N 52°25' E 004°49'0 0.0
2014-Apr-14 06:34N 52°25' E 004°49'0 0.0
2014-Apr-14 05:34N 52°25' E 004°49'0 0.0
2014-Apr-13 22:34N 52°25' E 004°49'0 0.0
2014-Apr-13 21:34N 52°25' E 004°49'0 0.0
2014-Apr-13 20:34N 52°25' E 004°49'0 0.0
2014-Apr-13 19:34N 52°25' E 004°49'0 0.0
2014-Apr-13 18:34N 52°25' E 004°49'0 0.0
2014-Apr-13 17:34N 52°25' E 004°49'0 0.0
2014-Apr-13 16:34N 52°25' E 004°49'0 0.0
2014-Apr-13 15:34N 52°25' E 004°49'0 0.0
2014-Apr-13 14:33N 52°25' E 004°49'0 0.0
2014-Apr-13 13:33N 52°25' E 004°49'0 0.5
2014-Apr-13 12:34N 52°25' E 004°48'8 7.6
2014-Apr-13 11:33N 52°28' E 004°36'3 2.6
2014-Apr-13 10:33N 52°28' E 004°32'6 6.2
2014-Apr-13 09:33N 52°28' E 004°22'1111.4
2014-Apr-13 08:33N 52°28' E 004°03'1313.1
2014-Apr-13 07:33N 52°17' E 003°52'1514.8
2014-Apr-13 06:34N 52°03' E 003°55'1212.0
2014-Apr-13 05:32N 51°56' E 004°12'9 8.8
2014-Apr-13 04:34N 51°54' E 004°26'0 0.2
2014-Apr-13 03:29N 51°54' E 004°26'0 0.0
2014-Apr-13 02:32N 51°54' E 004°26'0 0.0
2014-Apr-13 01:29N 51°54' E 004°26'0 0.0
2014-Apr-13 00:32N 51°54' E 004°26'0 0.0
2014-Apr-12 23:32N 51°54' E 004°26'0 0.0
2014-Apr-12 22:29N 51°54' E 004°26'0 0.0
2014-Apr-12 21:26N 51°54' E 004°26'0 0.0
2014-Apr-12 20:32N 51°54' E 004°26'0 0.0
2014-Apr-12 18:32N 51°54' E 004°26'0 0.0
2014-Apr-12 17:29N 51°54' E 004°26'0 0.0
2014-Apr-12 16:32N 51°54' E 004°26'0 0.0
2014-Apr-12 15:29N 51°54' E 004°26'0 0.0
2014-Apr-12 14:32N 51°54' E 004°26'0 0.0
2014-Apr-12 13:32N 51°54' E 004°26'0 0.0
2014-Apr-12 12:29N 51°54' E 004°26'0 0.0
2014-Apr-12 11:29N 51°54' E 004°26'0 0.0
2014-Apr-12 10:32N 51°54' E 004°26'0 0.0
2014-Apr-12 09:23N 51°54' E 004°26'0 0.0
2014-Apr-12 08:29N 51°54' E 004°26'0 0.0
2014-Apr-12 07:17N 51°54' E 004°26'0 0.0
2014-Apr-12 06:32N 51°54' E 004°26'0 0.0
2014-Apr-12 05:32N 51°54' E 004°26'0 0.0
2014-Apr-12 04:29N 51°54' E 004°26'0 0.0
2014-Apr-12 03:29N 51°54' E 004°26'0 0.0
2014-Apr-12 02:32N 51°54' E 004°26'0 0.0
2014-Apr-12 01:29N 51°54' E 004°26'0 0.0
2014-Apr-12 00:29N 51°54' E 004°26'0 0.0
2014-Apr-11 23:20N 51°54' E 004°26'0 0.0
2014-Apr-11 22:23N 51°54' E 004°26'0 0.0
2014-Apr-11 21:29N 51°54' E 004°26'0 0.0
2014-Apr-11 20:29N 51°54' E 004°26'0 0.0
2014-Apr-11 19:20N 51°54' E 004°26'0 0.0
2014-Apr-11 18:20N 51°54' E 004°26'0 0.0
2014-Apr-11 17:32N 51°54' E 004°26'0 0.0
2014-Apr-11 16:29N 51°54' E 004°26'0 0.0
2014-Apr-11 15:32N 51°54' E 004°26'0 0.0
2014-Apr-11 13:29N 51°54' E 004°26'0 0.0
2014-Apr-11 12:26N 51°54' E 004°26'0 0.0
2014-Apr-11 11:20N 51°54' E 004°26'0 0.0
2014-Apr-11 10:23N 51°54' E 004°26'0 0.0
2014-Apr-11 09:29N 51°54' E 004°26'0 0.0
2014-Apr-11 08:17N 51°54' E 004°26'0 0.0
2014-Apr-11 07:14N 51°54' E 004°26'0 0.0
2014-Apr-11 06:17N 51°54' E 004°26'0 0.0
2014-Apr-11 05:26N 51°54' E 004°26'0 0.0
2014-Apr-11 04:32N 51°54' E 004°26'0 0.0
2014-Apr-11 03:20N 51°54' E 004°26'0 0.0
2014-Apr-11 02:32N 51°54' E 004°26'0 0.0
2014-Apr-11 01:20N 51°54' E 004°26'0 0.0
2014-Apr-11 00:26N 51°54' E 004°26'0 0.0
2014-Apr-10 23:23N 51°54' E 004°26'0 0.0
2014-Apr-10 22:32N 51°54' E 004°26'0 0.0
2014-Apr-10 21:20N 51°54' E 004°26'0 0.0
2014-Apr-10 20:29N 51°54' E 004°26'0 0.0
2014-Apr-10 19:32N 51°54' E 004°26'0 0.0
2014-Apr-10 18:20N 51°54' E 004°26'0 0.0
2014-Apr-10 15:33N 51°54' E 004°26'4 4.0
2014-Apr-10 14:32N 51°54' E 004°20'1111.2
2014-Apr-10 13:32N 51°59' E 004°04'1211.5
2014-Apr-10 12:30N 51°59' E 003°45'1414.2
2014-Apr-10 11:33N 51°55' E 003°23'3615.9
2014-Apr-10 09:17N 51°41' E 002°30'1216.3
2014-Apr-10 08:33N 51°32' E 002°17'1615.5
2014-Apr-10 07:31N 51°18' E 002°05'1515.8
2014-Apr-10 06:33N 51°07' E 001°48'1616.1
2014-Apr-10 05:33N 50°56' E 001°30'1615.5
2014-Apr-10 04:33N 50°42' E 001°20'1815.5
2014-Apr-10 03:25N 50°30' E 000°59'1315.5
2014-Apr-10 02:33N 50°27' E 000°38'1615.4
2014-Apr-10 01:30N 50°22' E 000°14'3514.7
2014-Apr-09 23:07N 50°13' W 000°39'814.2
2014-Apr-09 22:33N 50°11' W 000°51'1414.0
2014-Apr-09 21:33N 50°07' W 001°12'3314.5
2014-Apr-09 19:16N 50°00' W 002°02'  

Dump ship's entire track history

sailing weather and tide predictions

Orange Wave — ELPX7 — position and weather